createdAt,value
2019-06-20T00:00:43.573Z,18.65
2019-06-20T00:03:47.352Z,18.61
2019-06-20T00:06:51.178Z,18.61
2019-06-20T00:09:55.070Z,18.70
2019-06-20T00:13:00.715Z,18.77
2019-06-20T00:16:04.832Z,18.75
2019-06-20T00:19:08.673Z,18.57
2019-06-20T00:22:12.497Z,18.59
2019-06-20T00:25:16.318Z,18.56
2019-06-20T00:28:20.191Z,18.53
2019-06-20T00:31:24.023Z,18.51
2019-06-20T00:34:27.838Z,18.55
2019-06-20T00:37:31.670Z,18.57
2019-06-20T00:40:35.681Z,18.50
2019-06-20T00:43:39.483Z,18.65
2019-06-20T00:46:43.328Z,18.81
2019-06-20T00:49:47.293Z,18.80
2019-06-20T00:52:51.185Z,18.80
2019-06-20T00:55:55.175Z,18.78
2019-06-20T00:58:59.212Z,18.70
2019-06-20T01:02:03.042Z,18.56
2019-06-20T01:05:07.813Z,18.51
2019-06-20T01:08:11.730Z,18.43
2019-06-20T01:11:15.542Z,18.31
2019-06-20T01:14:19.420Z,18.30
2019-06-20T01:17:23.289Z,18.20
2019-06-20T01:20:27.196Z,18.26
2019-06-20T01:23:31.067Z,18.26
2019-06-20T01:26:34.955Z,18.05
2019-06-20T01:29:38.776Z,18.08
2019-06-20T01:32:42.613Z,18.15
2019-06-20T01:35:46.730Z,18.32
2019-06-20T01:38:50.625Z,18.31
2019-06-20T01:41:54.452Z,18.27
2019-06-20T01:44:58.269Z,18.13
2019-06-20T01:48:02.161Z,18.00
2019-06-20T01:51:06.186Z,18.08
2019-06-20T01:54:10.017Z,17.95
2019-06-20T01:57:13.917Z,17.95
2019-06-20T02:00:37.157Z,17.83
2019-06-20T02:03:41.095Z,17.80
2019-06-20T02:06:45.024Z,17.71
2019-06-20T02:09:48.830Z,17.70
2019-06-20T02:12:52.667Z,17.68
2019-06-20T02:15:56.621Z,17.64
2019-06-20T02:19:00.600Z,17.60
2019-06-20T02:22:04.890Z,17.58
2019-06-20T02:25:09.492Z,17.53
2019-06-20T02:28:13.384Z,17.47
2019-06-20T02:31:17.283Z,17.41
2019-06-20T02:34:21.108Z,17.38
2019-06-20T02:37:24.940Z,17.36
2019-06-20T02:40:29.032Z,17.34
2019-06-20T02:43:32.983Z,17.30
2019-06-20T02:46:36.885Z,17.25
2019-06-20T02:49:40.710Z,17.23
2019-06-20T02:52:44.746Z,17.22
2019-06-20T02:55:48.715Z,17.23
2019-06-20T02:58:52.615Z,17.21
2019-06-20T03:01:56.430Z,17.24
2019-06-20T03:05:00.327Z,17.20
2019-06-20T03:08:04.352Z,17.12
2019-06-20T03:11:08.153Z,17.05
2019-06-20T03:14:12.022Z,17.04
2019-06-20T03:17:15.932Z,17.05
2019-06-20T03:20:19.830Z,17.04
2019-06-20T03:23:23.803Z,17.02
2019-06-20T03:26:27.720Z,17.07
2019-06-20T03:29:31.685Z,17.12
2019-06-20T03:32:35.528Z,17.10
2019-06-20T03:35:39.414Z,17.14
2019-06-20T03:38:43.263Z,17.11
2019-06-20T03:41:47.078Z,17.37
2019-06-20T03:45:01.743Z,17.44
2019-06-20T03:47:56.449Z,17.42
2019-06-20T03:51:00.298Z,17.39
2019-06-20T03:54:04.264Z,17.25
2019-06-20T03:57:08.089Z,17.17
2019-06-20T04:00:12.760Z,17.20
2019-06-20T04:03:16.657Z,17.28
2019-06-20T04:06:20.494Z,17.13
2019-06-20T04:09:24.337Z,17.05
2019-06-20T04:12:28.259Z,17.18
2019-06-20T04:15:32.216Z,17.10
2019-06-20T04:18:36.068Z,17.02
2019-06-20T04:21:39.963Z,16.93
2019-06-20T04:24:43.836Z,16.94
2019-06-20T04:27:47.665Z,17.07
2019-06-20T04:30:51.478Z,17.09
2019-06-20T04:33:55.316Z,17.12
2019-06-20T04:36:59.161Z,17.47
2019-06-20T04:40:03.056Z,17.35
2019-06-20T04:43:06.892Z,17.44
2019-06-20T04:46:35.999Z,17.49
2019-06-20T04:49:39.979Z,17.54
2019-06-20T04:52:43.834Z,17.71
2019-06-20T04:55:47.713Z,17.82
2019-06-20T04:58:51.588Z,17.94
2019-06-20T05:01:55.437Z,17.80
2019-06-20T05:04:59.276Z,18.02
2019-06-20T05:08:03.254Z,17.99
2019-06-20T05:11:07.037Z,18.04
2019-06-20T05:14:10.892Z,18.06
2019-06-20T05:17:14.744Z,18.05
2019-06-20T05:20:18.683Z,18.12
2019-06-20T05:23:22.649Z,18.39
2019-06-20T05:26:26.550Z,18.20
2019-06-20T05:29:30.353Z,18.22
2019-06-20T05:32:34.252Z,18.36
2019-06-20T05:35:38.082Z,18.27
2019-06-20T05:38:41.929Z,18.53
2019-06-20T05:41:45.863Z,18.59
2019-06-20T05:44:49.675Z,18.86
2019-06-20T05:47:53.532Z,18.88
2019-06-20T05:50:57.459Z,18.95
2019-06-20T05:54:01.311Z,18.88
2019-06-20T05:57:05.306Z,19.28
2019-06-20T06:00:10.096Z,19.29
2019-06-20T06:03:13.941Z,19.28
2019-06-20T06:06:17.785Z,19.42
2019-06-20T06:09:21.636Z,19.50
2019-06-20T06:12:25.576Z,19.27
2019-06-20T06:15:29.463Z,19.38
2019-06-20T06:18:33.320Z,19.27
2019-06-20T06:21:37.195Z,19.35
2019-06-20T06:24:41.083Z,19.33
2019-06-20T06:27:45.101Z,19.36
2019-06-20T06:30:49.070Z,19.38
2019-06-20T06:33:52.909Z,19.27
2019-06-20T06:36:56.786Z,19.24
2019-06-20T06:40:00.624Z,19.28
2019-06-20T06:43:04.629Z,19.27
2019-06-20T06:46:08.540Z,19.20
2019-06-20T06:49:12.396Z,19.00
2019-06-20T06:52:16.222Z,18.91
2019-06-20T06:55:20.298Z,18.83
2019-06-20T06:58:24.124Z,18.65
2019-06-20T07:01:28.053Z,18.58
2019-06-20T07:04:31.955Z,18.34
2019-06-20T07:07:35.865Z,18.32
2019-06-20T07:10:39.776Z,18.23
2019-06-20T07:13:43.668Z,18.27
2019-06-20T07:16:59.748Z,18.34
2019-06-20T07:19:53.245Z,18.32
2019-06-20T07:22:57.090Z,18.25
2019-06-20T07:26:00.904Z,18.50
2019-06-20T07:29:05.029Z,18.55
2019-06-20T07:32:08.941Z,18.63
2019-06-20T07:35:13.216Z,18.81
2019-06-20T07:38:17.113Z,19.01
2019-06-20T07:41:21.092Z,19.01
2019-06-20T07:44:25.013Z,18.79
2019-06-20T07:47:28.895Z,18.74
2019-06-20T07:50:32.853Z,18.90
2019-06-20T07:53:36.779Z,18.87
2019-06-20T07:56:40.750Z,18.79
2019-06-20T07:59:44.641Z,18.79
2019-06-20T08:02:48.608Z,18.89
2019-06-20T08:05:52.603Z,18.94
2019-06-20T08:08:56.455Z,18.91
2019-06-20T08:12:00.242Z,18.86
2019-06-20T08:15:14.482Z,18.90
2019-06-20T08:18:10.180Z,18.74
2019-06-20T08:21:14.167Z,18.63
2019-06-20T08:24:18.151Z,18.66
2019-06-20T08:27:41.243Z,18.81
2019-06-20T08:30:45.038Z,18.60
2019-06-20T08:33:48.870Z,18.64
2019-06-20T08:36:52.768Z,18.61
2019-06-20T08:39:57.341Z,18.64
2019-06-20T08:43:02.369Z,18.58
2019-06-20T08:46:10.207Z,18.60
2019-06-20T08:49:12.413Z,18.60
2019-06-20T08:52:16.314Z,18.70
2019-06-20T08:55:20.889Z,18.68
2019-06-20T08:58:24.779Z,18.69
2019-06-20T09:01:28.653Z,18.67
2019-06-20T09:04:32.675Z,18.68
2019-06-20T09:07:36.773Z,18.60
2019-06-20T09:10:41.748Z,18.75
2019-06-20T09:13:45.840Z,18.87
2019-06-20T09:16:49.748Z,18.82
2019-06-20T09:19:54.423Z,18.72
2019-06-20T09:22:58.932Z,18.67
2019-06-20T09:26:03.888Z,18.68
2019-06-20T09:29:08.301Z,18.64
2019-06-20T09:32:12.206Z,18.58
2019-06-20T09:35:16.377Z,18.70
2019-06-20T09:38:20.479Z,18.70
2019-06-20T09:41:24.347Z,18.68
2019-06-20T09:44:28.336Z,18.67
2019-06-20T09:47:32.217Z,18.60
2019-06-20T09:50:36.186Z,18.58
2019-06-20T09:53:40.094Z,18.57
2019-06-20T09:56:47.114Z,18.53
2019-06-20T10:00:03.306Z,18.57
2019-06-20T10:02:56.257Z,18.56
2019-06-20T10:06:01.003Z,18.44
2019-06-20T10:09:07.570Z,18.36
2019-06-20T10:12:11.548Z,18.26
2019-06-20T10:15:24.166Z,18.52
2019-06-20T10:18:28.082Z,18.43
2019-06-20T10:21:32.027Z,18.56
2019-06-20T10:24:35.902Z,18.55
2019-06-20T10:27:39.878Z,18.43
2019-06-20T10:30:44.731Z,18.51
2019-06-20T10:33:48.801Z,18.54
2019-06-20T10:36:52.782Z,18.71
2019-06-20T10:39:56.894Z,18.80
2019-06-20T10:43:00.736Z,18.91
2019-06-20T10:46:04.807Z,19.01
2019-06-20T10:49:08.716Z,19.04
2019-06-20T10:52:12.979Z,19.03
2019-06-20T10:55:18.123Z,18.94
2019-06-20T10:58:21.951Z,19.21
2019-06-20T11:01:25.921Z,19.24
2019-06-20T11:04:29.763Z,19.28
2019-06-20T11:07:33.573Z,19.51
2019-06-20T11:10:38.654Z,19.57
2019-06-20T11:13:44.383Z,19.97
2019-06-20T11:16:49.298Z,20.10
2019-06-20T11:19:53.324Z,20.20
2019-06-20T11:22:57.235Z,20.27
2019-06-20T11:26:01.352Z,20.35
2019-06-20T11:29:05.442Z,20.36
2019-06-20T11:32:09.737Z,20.50
2019-06-20T11:35:13.939Z,20.31
2019-06-20T11:38:17.884Z,20.11
2019-06-20T11:41:21.702Z,20.03
2019-06-20T11:44:25.551Z,20.03
2019-06-20T11:47:29.414Z,20.22
2019-06-20T11:50:34.475Z,20.11
2019-06-20T11:53:40.577Z,20.05
2019-06-20T11:56:44.495Z,20.04
2019-06-20T11:59:48.313Z,19.94
2019-06-20T12:02:52.311Z,19.82
2019-06-20T12:05:56.299Z,19.88
2019-06-20T12:09:00.302Z,19.78
2019-06-20T12:12:04.187Z,19.71
2019-06-20T12:15:08.767Z,19.73
2019-06-20T12:18:12.658Z,19.54
2019-06-20T12:21:16.830Z,19.50
2019-06-20T12:24:21.007Z,19.55
2019-06-20T12:27:25.111Z,19.58
2019-06-20T12:30:29.170Z,19.77
2019-06-20T12:33:33.078Z,19.83
2019-06-20T12:36:39.021Z,19.79
2019-06-20T12:39:44.408Z,19.75
2019-06-20T12:42:49.337Z,19.78
2019-06-20T12:45:53.417Z,19.80
2019-06-20T12:48:57.304Z,19.64
2019-06-20T12:52:01.301Z,19.78
2019-06-20T12:55:05.719Z,19.60
2019-06-20T12:58:09.710Z,19.67
2019-06-20T13:01:13.689Z,19.64
2019-06-20T13:04:18.718Z,19.82
2019-06-20T13:07:22.829Z,19.77
2019-06-20T13:10:26.833Z,19.79
2019-06-20T13:13:30.704Z,19.99
2019-06-20T13:16:34.667Z,20.22
2019-06-20T13:19:39.187Z,20.57
2019-06-20T13:22:44.791Z,20.60
2019-06-20T13:25:48.993Z,20.53
2019-06-20T13:29:03.235Z,20.44
2019-06-20T13:32:04.308Z,20.35
2019-06-20T13:35:04.213Z,20.21
2019-06-20T13:38:08.165Z,20.18
2019-06-20T13:41:12.413Z,20.23
2019-06-20T13:44:17.538Z,20.18
2019-06-20T13:47:21.716Z,20.23
2019-06-20T13:50:26.758Z,20.31
2019-06-20T13:53:30.674Z,20.30
2019-06-20T13:56:34.515Z,20.30
2019-06-20T13:59:38.410Z,20.37
2019-06-20T14:02:43.275Z,20.44
2019-06-20T14:05:49.793Z,20.43
2019-06-20T14:08:54.588Z,20.56
2019-06-20T14:11:58.690Z,20.69
2019-06-20T14:15:02.576Z,21.15
2019-06-20T14:18:06.577Z,21.18
2019-06-20T14:21:10.584Z,21.05
2019-06-20T14:24:14.458Z,21.01
2019-06-20T14:27:18.647Z,20.80
2019-06-20T14:30:22.700Z,20.97
2019-06-20T14:33:26.830Z,21.11
2019-06-20T14:36:30.846Z,21.59
2019-06-20T14:39:35.015Z,21.64
2019-06-20T14:42:38.935Z,21.58
2019-06-20T14:45:43.818Z,21.72
2019-06-20T14:48:48.523Z,21.80
2019-06-20T14:51:52.864Z,21.99
2019-06-20T14:54:56.860Z,21.63
2019-06-20T14:58:00.677Z,21.51
2019-06-20T15:01:04.682Z,21.54
2019-06-20T15:04:08.500Z,21.80
2019-06-20T15:07:12.432Z,22.10
2019-06-20T15:10:17.136Z,22.30
2019-06-20T15:13:20.925Z,22.28
2019-06-20T15:16:24.787Z,22.47
2019-06-20T15:19:28.602Z,22.14
2019-06-20T15:22:32.600Z,22.65
2019-06-20T15:25:36.892Z,22.70
2019-06-20T15:28:40.796Z,22.74
2019-06-20T15:31:45.864Z,22.96
2019-06-20T15:34:51.586Z,22.79
2019-06-20T15:37:57.702Z,22.54
2019-06-20T15:41:01.694Z,22.34
2019-06-20T15:44:06.087Z,22.34
2019-06-20T15:47:10.082Z,22.76
2019-06-20T15:50:14.945Z,22.93
2019-06-20T15:53:18.931Z,22.93
2019-06-20T15:56:22.831Z,23.24
2019-06-20T15:59:26.864Z,22.42
2019-06-20T16:02:30.729Z,22.42
2019-06-20T16:05:35.143Z,21.91
2019-06-20T16:08:39.520Z,21.59
2019-06-20T16:11:43.426Z,21.69
2019-06-20T16:14:47.321Z,22.11
2019-06-20T16:17:51.764Z,22.16
2019-06-20T16:20:55.645Z,21.99
2019-06-20T16:23:59.531Z,21.82
2019-06-20T16:27:03.648Z,21.65
2019-06-20T16:30:08.630Z,21.46
2019-06-20T16:33:24.741Z,21.15
2019-06-20T16:36:18.280Z,20.88
2019-06-20T16:39:22.158Z,20.92
2019-06-20T16:42:26.153Z,20.79
2019-06-20T16:45:30.067Z,20.69
2019-06-20T16:48:34.223Z,20.57
2019-06-20T16:51:38.323Z,20.65
2019-06-20T16:54:42.321Z,20.67
2019-06-20T16:57:46.151Z,20.56
2019-06-20T17:00:50.118Z,20.42
2019-06-20T17:03:53.939Z,20.26
2019-06-20T17:06:57.857Z,20.19
2019-06-20T17:10:01.668Z,20.10
2019-06-20T17:13:05.738Z,20.10
2019-06-20T17:16:09.634Z,19.93
2019-06-20T17:19:13.586Z,20.07
2019-06-20T17:22:17.476Z,19.73
2019-06-20T17:25:23.584Z,19.79
2019-06-20T17:28:27.645Z,19.67
2019-06-20T17:31:31.679Z,19.77
2019-06-20T17:34:35.535Z,19.64
2019-06-20T17:37:39.606Z,19.55
2019-06-20T17:40:43.558Z,19.64
2019-06-20T17:43:47.394Z,19.62
2019-06-20T17:46:51.688Z,19.52
2019-06-20T17:49:55.519Z,19.51
2019-06-20T17:52:59.346Z,19.53
2019-06-20T17:56:03.450Z,19.46
2019-06-20T17:59:07.600Z,19.06
2019-06-20T18:02:11.507Z,19.09
2019-06-20T18:05:17.065Z,19.24
2019-06-20T18:08:21.105Z,19.18
2019-06-20T18:11:24.948Z,18.99
2019-06-20T18:14:28.748Z,19.08
2019-06-20T18:17:32.593Z,19.07
2019-06-20T18:20:36.478Z,18.92
2019-06-20T18:23:40.317Z,19.07
2019-06-20T18:26:44.209Z,18.83
2019-06-20T18:29:48.123Z,18.65
2019-06-20T18:32:52.012Z,18.63
2019-06-20T18:35:55.956Z,18.66
2019-06-20T18:38:59.870Z,18.57
2019-06-20T18:42:03.820Z,18.65
2019-06-20T18:45:08.610Z,18.54
2019-06-20T18:48:12.428Z,18.46
2019-06-20T18:51:16.247Z,18.45
2019-06-20T18:54:20.173Z,18.50
2019-06-20T18:57:24.131Z,18.36
2019-06-20T19:00:34.723Z,18.26
2019-06-20T19:03:34.310Z,18.18
2019-06-20T19:06:38.125Z,18.22
2019-06-20T19:09:41.952Z,18.01
2019-06-20T19:12:45.745Z,18.08
2019-06-20T19:15:49.823Z,18.10
2019-06-20T19:18:53.617Z,17.95
2019-06-20T19:21:57.498Z,18.01
2019-06-20T19:25:03.933Z,17.84
2019-06-20T19:28:07.006Z,17.86
2019-06-20T19:31:10.818Z,17.89
2019-06-20T19:34:14.719Z,17.79
2019-06-20T19:37:18.667Z,17.86
2019-06-20T19:40:25.522Z,17.84
2019-06-20T19:43:29.359Z,17.77
2019-06-20T19:46:33.327Z,17.85
2019-06-20T19:49:37.298Z,17.60
2019-06-20T19:52:41.318Z,17.43
2019-06-20T19:55:45.500Z,17.53
2019-06-20T19:58:49.412Z,17.63
2019-06-20T20:01:53.485Z,17.56
2019-06-20T20:04:57.466Z,17.57
2019-06-20T20:08:01.537Z,17.55
2019-06-20T20:11:05.497Z,17.44
2019-06-20T20:14:09.427Z,17.46
2019-06-20T20:17:13.297Z,17.32
2019-06-20T20:20:17.315Z,17.25
2019-06-20T20:23:21.360Z,17.20
2019-06-20T20:26:25.336Z,17.17
2019-06-20T20:29:29.268Z,17.30
2019-06-20T20:32:33.156Z,17.16
2019-06-20T20:35:37.130Z,17.12
2019-06-20T20:38:41.029Z,17.03
2019-06-20T20:41:44.928Z,17.15
2019-06-20T20:44:48.750Z,16.98
2019-06-20T20:47:52.674Z,16.96
2019-06-20T20:50:56.497Z,16.73
2019-06-20T20:54:00.670Z,16.67
2019-06-20T20:57:04.863Z,16.62
2019-06-20T21:00:11.015Z,16.60
2019-06-20T21:03:14.980Z,16.42
2019-06-20T21:06:18.915Z,16.39
2019-06-20T21:09:22.902Z,16.40
2019-06-20T21:12:26.814Z,16.39
2019-06-20T21:15:31.422Z,16.28
2019-06-20T21:18:35.242Z,16.22
2019-06-20T21:21:39.068Z,16.15
2019-06-20T21:24:42.872Z,16.15
2019-06-20T21:27:46.828Z,16.09
2019-06-20T21:30:50.632Z,16.03
2019-06-20T21:33:54.807Z,16.05
2019-06-20T21:36:58.866Z,15.96
2019-06-20T21:40:02.759Z,15.83
2019-06-20T21:43:06.633Z,15.85
2019-06-20T21:46:10.992Z,15.74
2019-06-20T21:49:15.085Z,15.78
2019-06-20T21:52:19.153Z,15.65
2019-06-20T21:55:23.219Z,15.58
2019-06-20T21:58:27.041Z,15.65
2019-06-20T22:01:30.986Z,15.69
2019-06-20T22:04:34.994Z,15.51
2019-06-20T22:07:38.901Z,15.42
2019-06-20T22:10:42.804Z,15.37
2019-06-20T22:13:49.419Z,15.26
2019-06-20T22:16:53.322Z,15.23
2019-06-20T22:19:57.326Z,15.30
2019-06-20T22:23:01.409Z,15.16
2019-06-20T22:26:05.797Z,15.01
2019-06-20T22:29:09.827Z,14.93
2019-06-20T22:32:14.022Z,14.90
2019-06-20T22:35:18.825Z,14.90
2019-06-20T22:38:22.825Z,14.89
2019-06-20T22:41:26.794Z,14.89
2019-06-20T22:44:30.835Z,14.86
2019-06-20T22:47:34.857Z,14.83
2019-06-20T22:50:38.682Z,14.85
2019-06-20T22:53:42.639Z,14.91
2019-06-20T22:56:46.680Z,14.83
2019-06-20T22:59:50.683Z,14.81
2019-06-20T23:02:55.751Z,14.60
2019-06-20T23:05:59.744Z,14.49
2019-06-20T23:09:04.252Z,14.44
2019-06-20T23:12:08.223Z,14.41
2019-06-20T23:15:13.645Z,14.30
2019-06-20T23:18:17.534Z,14.21
2019-06-20T23:21:21.529Z,14.17
2019-06-20T23:24:25.636Z,14.15
2019-06-20T23:27:29.501Z,14.27
2019-06-20T23:30:33.484Z,14.18
2019-06-20T23:33:37.568Z,14.17
2019-06-20T23:36:41.887Z,14.10
2019-06-20T23:39:45.832Z,14.18
2019-06-20T23:42:49.640Z,14.03
2019-06-20T23:45:53.761Z,13.97
2019-06-20T23:48:57.719Z,14.04
2019-06-20T23:52:07.058Z,14.09
2019-06-20T23:55:11.040Z,14.07
2019-06-20T23:58:14.872Z,14.00
